sensor_id;sensor_type;location;lat;lon;timestamp;temperature;humidity
19654;DHT22;9975;48.046;7.804;2023-04-24T01:56:42;11.10;99.90
19654;DHT22;9975;48.046;7.804;2023-04-24T01:59:10;11.10;99.90
19654;DHT22;9975;48.046;7.804;2023-04-24T02:01:37;11.10;99.90
19654;DHT22;9975;48.046;7.804;2023-04-24T02:04:04;11.10;99.90
19654;DHT22;9975;48.046;7.804;2023-04-24T02:06:30;11.10;99.90
19654;DHT22;9975;48.046;7.804;2023-04-24T02:08:57;11.10;99.90
19654;DHT22;9975;48.046;7.804;2023-04-24T02:11:23;11.10;99.90
19654;DHT22;9975;48.046;7.804;2023-04-24T02:13:48;11.20;99.90
19654;DHT22;9975;48.046;7.804;2023-04-24T02:16:15;11.10;99.90
19654;DHT22;9975;48.046;7.804;2023-04-24T02:18:41;11.10;99.90
19654;DHT22;9975;48.046;7.804;2023-04-24T02:21:07;11.10;99.90
19654;DHT22;9975;48.046;7.804;2023-04-24T02:23:32;11.10;99.90
19654;DHT22;9975;48.046;7.804;2023-04-24T02:25:58;11.10;99.90
19654;DHT22;9975;48.046;7.804;2023-04-24T02:28:23;11.10;99.90
19654;DHT22;9975;48.046;7.804;2023-04-24T02:30:50;11.10;99.90
19654;DHT22;9975;48.046;7.804;2023-04-24T02:33:16;11.10;99.90
19654;DHT22;9975;48.046;7.804;2023-04-24T02:35:41;11.00;99.90
19654;DHT22;9975;48.046;7.804;2023-04-24T02:38:07;11.00;99.90
19654;DHT22;9975;48.046;7.804;2023-04-24T02:40:32;11.00;99.90
19654;DHT22;9975;48.046;7.804;2023-04-24T02:42:58;11.00;99.90
19654;DHT22;9975;48.046;7.804;2023-04-24T02:45:23;11.00;99.90
19654;DHT22;9975;48.046;7.804;2023-04-24T02:47:49;11.00;99.90
19654;DHT22;9975;48.046;7.804;2023-04-24T02:50:15;11.00;99.90
19654;DHT22;9975;48.046;7.804;2023-04-24T02:52:40;11.00;99.90
19654;DHT22;9975;48.046;7.804;2023-04-24T02:55:06;11.10;99.90
19654;DHT22;9975;48.046;7.804;2023-04-24T02:57:33;11.10;99.90
19654;DHT22;9975;48.046;7.804;2023-04-24T02:59:59;11.10;99.90
19654;DHT22;9975;48.046;7.804;2023-04-24T03:02:25;11.10;99.90
19654;DHT22;9975;48.046;7.804;2023-04-24T03:04:50;11.10;99.90
19654;DHT22;9975;48.046;7.804;2023-04-24T03:07:16;11.10;99.90
19654;DHT22;9975;48.046;7.804;2023-04-24T03:09:42;11.10;99.90
19654;DHT22;9975;48.046;7.804;2023-04-24T03:12:07;11.10;99.90
19654;DHT22;9975;48.046;7.804;2023-04-24T03:14:33;11.10;99.90
19654;DHT22;9975;48.046;7.804;2023-04-24T03:16:59;11.10;99.90
19654;DHT22;9975;48.046;7.804;2023-04-24T03:19:25;11.10;99.90
19654;DHT22;9975;48.046;7.804;2023-04-24T03:21:50;11.10;99.90
19654;DHT22;9975;48.046;7.804;2023-04-24T03:24:16;11.10;99.90
19654;DHT22;9975;48.046;7.804;2023-04-24T03:26:41;11.10;99.90
19654;DHT22;9975;48.046;7.804;2023-04-24T03:29:07;11.00;99.90
19654;DHT22;9975;48.046;7.804;2023-04-24T03:31:33;11.00;99.90
19654;DHT22;9975;48.046;7.804;2023-04-24T03:33:58;11.00;99.90
19654;DHT22;9975;48.046;7.804;2023-04-24T03:36:24;10.90;99.90
19654;DHT22;9975;48.046;7.804;2023-04-24T03:38:51;10.90;99.90
19654;DHT22;9975;48.046;7.804;2023-04-24T03:41:17;10.90;99.90
19654;DHT22;9975;48.046;7.804;2023-04-24T03:43:42;10.90;99.90
19654;DHT22;9975;48.046;7.804;2023-04-24T03:46:08;10.80;99.90
19654;DHT22;9975;48.046;7.804;2023-04-24T03:48:35;10.80;99.90
19654;DHT22;9975;48.046;7.804;2023-04-24T03:51:00;10.80;99.90
19654;DHT22;9975;48.046;7.804;2023-04-24T03:53:26;10.80;99.90
19654;DHT22;9975;48.046;7.804;2023-04-24T03:55:52;10.80;99.90
19654;DHT22;9975;48.046;7.804;2023-04-24T03:58:18;10.80;99.90
19654;DHT22;9975;48.046;7.804;2023-04-24T04:00:44;10.80;99.90
19654;DHT22;9975;48.046;7.804;2023-04-24T04:03:11;10.80;99.90
19654;DHT22;9975;48.046;7.804;2023-04-24T04:05:38;10.70;99.90
19654;DHT22;9975;48.046;7.804;2023-04-24T04:08:04;10.70;99.90
19654;DHT22;9975;48.046;7.804;2023-04-24T04:10:29;10.70;99.90
19654;DHT22;9975;48.046;7.804;2023-04-24T04:12:55;10.60;99.90
19654;DHT22;9975;48.046;7.804;2023-04-24T04:15:20;10.70;99.90
19654;DHT22;9975;48.046;7.804;2023-04-24T04:17:46;10.60;99.90
19654;DHT22;9975;48.046;7.804;2023-04-24T04:20:12;10.60;99.90
19654;DHT22;9975;48.046;7.804;2023-04-24T04:22:38;10.60;99.90
19654;DHT22;9975;48.046;7.804;2023-04-24T04:25:05;10.60;99.90
19654;DHT22;9975;48.046;7.804;2023-04-24T04:27:31;10.60;99.90
19654;DHT22;9975;48.046;7.804;2023-04-24T04:30:00;10.60;99.90
19654;DHT22;9975;48.046;7.804;2023-04-24T04:32:33;10.60;99.90
19654;DHT22;9975;48.046;7.804;2023-04-24T04:35:00;10.50;99.90
19654;DHT22;9975;48.046;7.804;2023-04-24T04:37:32;10.50;99.90
19654;DHT22;9975;48.046;7.804;2023-04-24T04:39:58;10.50;99.90
19654;DHT22;9975;48.046;7.804;2023-04-24T04:42:25;10.50;99.90
19654;DHT22;9975;48.046;7.804;2023-04-24T04:44:51;10.60;99.90
19654;DHT22;9975;48.046;7.804;2023-04-24T04:47:17;10.60;99.90
19654;DHT22;9975;48.046;7.804;2023-04-24T04:49:43;10.60;99.90
19654;DHT22;9975;48.046;7.804;2023-04-24T04:52:09;10.60;99.90
19654;DHT22;9975;48.046;7.804;2023-04-24T04:54:35;10.50;99.90
19654;DHT22;9975;48.046;7.804;2023-04-24T04:57:00;10.50;99.90
19654;DHT22;9975;48.046;7.804;2023-04-24T04:59:27;10.50;99.90
19654;DHT22;9975;48.046;7.804;2023-04-24T05:01:52;10.50;99.90
19654;DHT22;9975;48.046;7.804;2023-04-24T05:04:18;10.50;99.90
19654;DHT22;9975;48.046;7.804;2023-04-24T05:06:44;10.50;99.90
19654;DHT22;9975;48.046;7.804;2023-04-24T05:09:10;10.50;99.90
19654;DHT22;9975;48.046;7.804;2023-04-24T05:11:35;10.60;99.90
19654;DHT22;9975;48.046;7.804;2023-04-24T05:14:01;10.50;99.90
19654;DHT22;9975;48.046;7.804;2023-04-24T05:16:27;10.50;99.90
19654;DHT22;9975;48.046;7.804;2023-04-24T05:18:52;10.40;99.90
19654;DHT22;9975;48.046;7.804;2023-04-24T05:21:18;10.40;99.90
19654;DHT22;9975;48.046;7.804;2023-04-24T05:23:43;10.50;99.90
19654;DHT22;9975;48.046;7.804;2023-04-24T05:26:09;10.40;99.90
19654;DHT22;9975;48.046;7.804;2023-04-24T05:28:35;10.40;99.90
19654;DHT22;9975;48.046;7.804;2023-04-24T05:31:02;10.40;99.90
19654;DHT22;9975;48.046;7.804;2023-04-24T05:33:28;10.40;99.90
19654;DHT22;9975;48.046;7.804;2023-04-24T05:35:54;10.30;99.90
19654;DHT22;9975;48.046;7.804;2023-04-24T05:38:19;10.20;99.90
19654;DHT22;9975;48.046;7.804;2023-04-24T05:40:45;10.20;99.90
19654;DHT22;9975;48.046;7.804;2023-04-24T05:43:12;10.30;99.90
19654;DHT22;9975;48.046;7.804;2023-04-24T05:45:38;10.20;99.90
19654;DHT22;9975;48.046;7.804;2023-04-24T05:48:04;10.20;99.90
19654;DHT22;9975;48.046;7.804;2023-04-24T05:50:30;10.20;99.90
19654;DHT22;9975;48.046;7.804;2023-04-24T05:52:55;10.20;99.90
19654;DHT22;9975;48.046;7.804;2023-04-24T05:55:26;10.20;99.90
19654;DHT22;9975;48.046;7.804;2023-04-24T05:57:52;10.20;99.90
19654;DHT22;9975;48.046;7.804;2023-04-24T06:00:18;10.10;99.90
19654;DHT22;9975;48.046;7.804;2023-04-24T06:02:45;10.10;99.90
19654;DHT22;9975;48.046;7.804;2023-04-24T06:05:11;10.10;99.90
19654;DHT22;9975;48.046;7.804;2023-04-24T06:07:37;10.10;99.90
19654;DHT22;9975;48.046;7.804;2023-04-24T06:10:03;10.10;99.90
19654;DHT22;9975;48.046;7.804;2023-04-24T06:12:28;10.10;99.90
19654;DHT22;9975;48.046;7.804;2023-04-24T06:14:54;10.10;99.90
19654;DHT22;9975;48.046;7.804;2023-04-24T06:17:21;10.20;99.90
19654;DHT22;9975;48.046;7.804;2023-04-24T06:19:46;10.20;99.90
19654;DHT22;9975;48.046;7.804;2023-04-24T06:22:12;10.30;99.90
19654;DHT22;9975;48.046;7.804;2023-04-24T06:24:39;10.40;99.90
19654;DHT22;9975;48.046;7.804;2023-04-24T06:27:05;10.40;99.90
19654;DHT22;9975;48.046;7.804;2023-04-24T06:29:31;10.40;99.90
19654;DHT22;9975;48.046;7.804;2023-04-24T06:31:56;10.40;99.90
19654;DHT22;9975;48.046;7.804;2023-04-24T06:34:22;10.40;99.90
19654;DHT22;9975;48.046;7.804;2023-04-24T06:36:47;10.40;99.90
19654;DHT22;9975;48.046;7.804;2023-04-24T06:39:13;10.40;99.90
19654;DHT22;9975;48.046;7.804;2023-04-24T06:41:39;10.40;99.90
19654;DHT22;9975;48.046;7.804;2023-04-24T06:44:05;10.40;99.90
19654;DHT22;9975;48.046;7.804;2023-04-24T06:46:31;10.40;99.90
19654;DHT22;9975;48.046;7.804;2023-04-24T06:48:56;10.40;99.90
19654;DHT22;9975;48.046;7.804;2023-04-24T06:51:26;10.40;99.90
19654;DHT22;9975;48.046;7.804;2023-04-24T06:53:53;10.40;99.90
19654;DHT22;9975;48.046;7.804;2023-04-24T06:56:19;10.40;99.90
19654;DHT22;9975;48.046;7.804;2023-04-24T06:58:46;10.40;99.90
19654;DHT22;9975;48.046;7.804;2023-04-24T07:01:11;10.40;99.90
19654;DHT22;9975;48.046;7.804;2023-04-24T07:03:37;10.40;99.90
19654;DHT22;9975;48.046;7.804;2023-04-24T07:06:04;10.50;99.90
19654;DHT22;9975;48.046;7.804;2023-04-24T07:08:30;10.50;99.90
19654;DHT22;9975;48.046;7.804;2023-04-24T07:10:57;10.60;99.90
19654;DHT22;9975;48.046;7.804;2023-04-24T07:13:23;10.60;99.90
19654;DHT22;9975;48.046;7.804;2023-04-24T07:15:49;10.60;99.90
19654;DHT22;9975;48.046;7.804;2023-04-24T07:18:20;10.50;99.90
19654;DHT22;9975;48.046;7.804;2023-04-24T07:20:45;10.70;99.90
19654;DHT22;9975;48.046;7.804;2023-04-24T07:23:11;10.90;99.90
19654;DHT22;9975;48.046;7.804;2023-04-24T07:25:37;11.10;99.90
19654;DHT22;9975;48.046;7.804;2023-04-24T07:28:04;11.20;99.90
19654;DHT22;9975;48.046;7.804;2023-04-24T07:30:30;11.30;99.90
19654;DHT22;9975;48.046;7.804;2023-04-24T07:32:58;11.40;99.90
19654;DHT22;9975;48.046;7.804;2023-04-24T07:35:24;11.60;99.90
19654;DHT22;9975;48.046;7.804;2023-04-24T07:37:52;11.70;99.90
19654;DHT22;9975;48.046;7.804;2023-04-24T07:40:18;11.90;99.90
19654;DHT22;9975;48.046;7.804;2023-04-24T07:42:44;12.00;99.90
19654;DHT22;9975;48.046;7.804;2023-04-24T07:45:10;12.20;99.90
19654;DHT22;9975;48.046;7.804;2023-04-24T07:47:35;12.20;99.90
19654;DHT22;9975;48.046;7.804;2023-04-24T07:50:02;12.20;99.90
19654;DHT22;9975;48.046;7.804;2023-04-24T07:52:28;12.30;99.90
19654;DHT22;9975;48.046;7.804;2023-04-24T07:54:55;11.90;99.90
19654;DHT22;9975;48.046;7.804;2023-04-24T07:57:24;11.80;99.90
19654;DHT22;9975;48.046;7.804;2023-04-24T07:59:50;11.70;99.80
19654;DHT22;9975;48.046;7.804;2023-04-24T08:02:16;11.50;99.30
19654;DHT22;9975;48.046;7.804;2023-04-24T08:04:42;11.40;98.50
19654;DHT22;9975;48.046;7.804;2023-04-24T08:07:07;11.40;99.00
19654;DHT22;9975;48.046;7.804;2023-04-24T08:09:33;11.40;98.70
19654;DHT22;9975;48.046;7.804;2023-04-24T08:11:59;11.40;99.10
19654;DHT22;9975;48.046;7.804;2023-04-24T08:14:25;11.40;99.10
19654;DHT22;9975;48.046;7.804;2023-04-24T08:16:52;11.40;97.80
19654;DHT22;9975;48.046;7.804;2023-04-24T08:19:17;11.40;96.50
19654;DHT22;9975;48.046;7.804;2023-04-24T08:21:43;11.50;97.30
19654;DHT22;9975;48.046;7.804;2023-04-24T08:24:08;11.40;97.20
19654;DHT22;9975;48.046;7.804;2023-04-24T08:26:34;11.40;97.50
19654;DHT22;9975;48.046;7.804;2023-04-24T08:29:00;11.50;97.10
19654;DHT22;9975;48.046;7.804;2023-04-24T08:31:26;11.60;96.60
19654;DHT22;9975;48.046;7.804;2023-04-24T08:33:52;11.70;94.20
19654;DHT22;9975;48.046;7.804;2023-04-24T08:36:17;11.70;91.50
19654;DHT22;9975;48.046;7.804;2023-04-24T08:38:43;11.80;87.90
19654;DHT22;9975;48.046;7.804;2023-04-24T08:41:09;11.70;86.30
19654;DHT22;9975;48.046;7.804;2023-04-24T08:43:35;11.80;85.20
19654;DHT22;9975;48.046;7.804;2023-04-24T08:46:04;11.90;84.80
19654;DHT22;9975;48.046;7.804;2023-04-24T08:48:30;11.90;82.30
19654;DHT22;9975;48.046;7.804;2023-04-24T08:50:57;11.90;81.50
19654;DHT22;9975;48.046;7.804;2023-04-24T08:53:24;12.20;81.00
19654;DHT22;9975;48.046;7.804;2023-04-24T08:55:50;12.40;79.60
19654;DHT22;9975;48.046;7.804;2023-04-24T08:58:17;12.50;78.30
19654;DHT22;9975;48.046;7.804;2023-04-24T09:00:43;12.40;75.70
19654;DHT22;9975;48.046;7.804;2023-04-24T09:03:16;11.90;74.50
19654;DHT22;9975;48.046;7.804;2023-04-24T09:05:47;12.20;72.30
19654;DHT22;9975;48.046;7.804;2023-04-24T09:08:13;12.10;72.70
19654;DHT22;9975;48.046;7.804;2023-04-24T09:10:40;11.70;70.00
19654;DHT22;9975;48.046;7.804;2023-04-24T09:13:06;11.60;70.80
19654;DHT22;9975;48.046;7.804;2023-04-24T09:15:34;11.60;71.70
19654;DHT22;9975;48.046;7.804;2023-04-24T09:18:01;11.60;71.40
19654;DHT22;9975;48.046;7.804;2023-04-24T09:20:27;11.70;71.10
19654;DHT22;9975;48.046;7.804;2023-04-24T09:22:57;11.80;71.10
19654;DHT22;9975;48.046;7.804;2023-04-24T09:25:32;11.90;69.90
19654;DHT22;9975;48.046;7.804;2023-04-24T09:28:03;11.90;69.20
19654;DHT22;9975;48.046;7.804;2023-04-24T09:30:29;12.10;69.20
19654;DHT22;9975;48.046;7.804;2023-04-24T09:33:14;12.60;70.80
19654;DHT22;9975;48.046;7.804;2023-04-24T09:35:51;13.20;67.30
19654;DHT22;9975;48.046;7.804;2023-04-24T09:38:17;13.60;68.60
19654;DHT22;9975;48.046;7.804;2023-04-24T09:40:43;13.80;62.00
19654;DHT22;9975;48.046;7.804;2023-04-24T09:43:11;14.00;59.70
19654;DHT22;9975;48.046;7.804;2023-04-24T09:45:38;14.40;59.90
19654;DHT22;9975;48.046;7.804;2023-04-24T09:48:04;14.40;57.70
19654;DHT22;9975;48.046;7.804;2023-04-24T09:50:31;14.40;56.70
19654;DHT22;9975;48.046;7.804;2023-04-24T09:52:59;14.10;57.10
19654;DHT22;9975;48.046;7.804;2023-04-24T09:55:27;13.90;55.70
19654;DHT22;9975;48.046;7.804;2023-04-24T10:00:30;13.90;53.40
19654;DHT22;9975;48.046;7.804;2023-04-24T10:02:57;14.30;51.30
19654;DHT22;9975;48.046;7.804;2023-04-24T10:05:24;14.10;52.90
19654;DHT22;9975;48.046;7.804;2023-04-24T10:07:51;13.90;52.00
19654;DHT22;9975;48.046;7.804;2023-04-24T10:10:17;13.80;53.20
19654;DHT22;9975;48.046;7.804;2023-04-24T10:12:44;13.40;51.90
19654;DHT22;9975;48.046;7.804;2023-04-24T10:15:10;13.20;52.30
19654;DHT22;9975;48.046;7.804;2023-04-24T10:17:38;13.20;53.30
19654;DHT22;9975;48.046;7.804;2023-04-24T10:20:05;13.30;54.60
19654;DHT22;9975;48.046;7.804;2023-04-24T10:22:32;13.40;53.50
19654;DHT22;9975;48.046;7.804;2023-04-24T10:24:59;13.30;53.30
19654;DHT22;9975;48.046;7.804;2023-04-24T10:27:26;13.20;52.60
19654;DHT22;9975;48.046;7.804;2023-04-24T10:29:53;13.00;52.60
19654;DHT22;9975;48.046;7.804;2023-04-24T10:32:19;13.00;52.10
19654;DHT22;9975;48.046;7.804;2023-04-24T10:34:44;13.10;52.80
19654;DHT22;9975;48.046;7.804;2023-04-24T10:37:10;13.10;53.20
19654;DHT22;9975;48.046;7.804;2023-04-24T10:39:36;13.10;52.50
19654;DHT22;9975;48.046;7.804;2023-04-24T10:42:14;13.30;53.60
19654;DHT22;9975;48.046;7.804;2023-04-24T10:44:41;13.00;53.80
19654;DHT22;9975;48.046;7.804;2023-04-24T10:47:12;13.20;53.80
19654;DHT22;9975;48.046;7.804;2023-04-24T10:49:38;13.70;54.40
19654;DHT22;9975;48.046;7.804;2023-04-24T10:52:04;13.90;54.00
19654;DHT22;9975;48.046;7.804;2023-04-24T10:54:44;13.80;53.00
19654;DHT22;9975;48.046;7.804;2023-04-24T11:00:09;13.40;50.60
19654;DHT22;9975;48.046;7.804;2023-04-24T11:02:38;13.20;51.00
19654;DHT22;9975;48.046;7.804;2023-04-24T11:05:06;13.10;51.80
19654;DHT22;9975;48.046;7.804;2023-04-24T11:08:10;13.20;51.50
19654;DHT22;9975;48.046;7.804;2023-04-24T11:10:46;13.10;51.00
19654;DHT22;9975;48.046;7.804;2023-04-24T11:13:16;12.90;51.60
19654;DHT22;9975;48.046;7.804;2023-04-24T11:15:42;13.00;51.80
19654;DHT22;9975;48.046;7.804;2023-04-24T11:18:14;13.20;52.70
19654;DHT22;9975;48.046;7.804;2023-04-24T11:20:44;13.30;50.70
19654;DHT22;9975;48.046;7.804;2023-04-24T11:23:12;13.30;50.00
19654;DHT22;9975;48.046;7.804;2023-04-24T11:25:38;13.30;50.10
19654;DHT22;9975;48.046;7.804;2023-04-24T11:28:05;13.20;50.80
19654;DHT22;9975;48.046;7.804;2023-04-24T11:30:32;13.40;52.20
19654;DHT22;9975;48.046;7.804;2023-04-24T11:33:05;13.30;52.70
19654;DHT22;9975;48.046;7.804;2023-04-24T11:35:36;13.40;52.80
19654;DHT22;9975;48.046;7.804;2023-04-24T11:38:04;13.50;53.60
19654;DHT22;9975;48.046;7.804;2023-04-24T11:40:31;13.80;53.00
19654;DHT22;9975;48.046;7.804;2023-04-24T11:42:56;13.80;52.40
19654;DHT22;9975;48.046;7.804;2023-04-24T11:45:27;13.80;51.90
19654;DHT22;9975;48.046;7.804;2023-04-24T11:47:53;13.80;52.10
19654;DHT22;9975;48.046;7.804;2023-04-24T11:50:21;13.60;52.20
19654;DHT22;9975;48.046;7.804;2023-04-24T11:52:48;13.50;53.00
19654;DHT22;9975;48.046;7.804;2023-04-24T11:57:43;13.30;52.40
19654;DHT22;9975;48.046;7.804;2023-04-24T12:00:16;13.40;52.80
19654;DHT22;9975;48.046;7.804;2023-04-24T12:02:42;13.30;52.30
19654;DHT22;9975;48.046;7.804;2023-04-24T12:05:08;13.50;53.10
19654;DHT22;9975;48.046;7.804;2023-04-24T12:07:41;13.70;53.50
19654;DHT22;9975;48.046;7.804;2023-04-24T12:10:09;13.80;53.10
19654;DHT22;9975;48.046;7.804;2023-04-24T12:12:35;13.80;52.50
19654;DHT22;9975;48.046;7.804;2023-04-24T12:15:06;13.80;53.10
19654;DHT22;9975;48.046;7.804;2023-04-24T12:17:33;13.90;53.00
19654;DHT22;9975;48.046;7.804;2023-04-24T12:20:05;13.90;53.70
19654;DHT22;9975;48.046;7.804;2023-04-24T12:25:16;13.70;54.50
19654;DHT22;9975;48.046;7.804;2023-04-24T12:27:42;13.70;53.70
19654;DHT22;9975;48.046;7.804;2023-04-24T12:30:13;13.70;52.70
19654;DHT22;9975;48.046;7.804;2023-04-24T12:32:49;13.70;52.90
19654;DHT22;9975;48.046;7.804;2023-04-24T12:35:21;13.80;54.10
19654;DHT22;9975;48.046;7.804;2023-04-24T12:37:47;14.30;54.50
19654;DHT22;9975;48.046;7.804;2023-04-24T12:40:13;14.70;54.40
19654;DHT22;9975;48.046;7.804;2023-04-24T12:42:47;14.90;51.90
19654;DHT22;9975;48.046;7.804;2023-04-24T12:45:13;15.00;51.30
19654;DHT22;9975;48.046;7.804;2023-04-24T12:47:40;15.30;50.60
19654;DHT22;9975;48.046;7.804;2023-04-24T12:50:08;15.50;49.20
19654;DHT22;9975;48.046;7.804;2023-04-24T12:52:34;15.60;48.30
19654;DHT22;9975;48.046;7.804;2023-04-24T12:55:00;15.50;48.30
19654;DHT22;9975;48.046;7.804;2023-04-24T12:57:28;15.50;49.50
19654;DHT22;9975;48.046;7.804;2023-04-24T12:59:56;15.70;49.50
19654;DHT22;9975;48.046;7.804;2023-04-24T13:02:22;15.40;46.60
19654;DHT22;9975;48.046;7.804;2023-04-24T13:04:49;15.20;47.00
19654;DHT22;9975;48.046;7.804;2023-04-24T13:07:15;15.20;47.10
19654;DHT22;9975;48.046;7.804;2023-04-24T13:09:41;15.10;47.00
19654;DHT22;9975;48.046;7.804;2023-04-24T13:12:08;15.10;47.00
19654;DHT22;9975;48.046;7.804;2023-04-24T13:14:33;15.00;47.00
19654;DHT22;9975;48.046;7.804;2023-04-24T13:16:59;15.10;47.30
19654;DHT22;9975;48.046;7.804;2023-04-24T13:19:26;15.20;46.10
19654;DHT22;9975;48.046;7.804;2023-04-24T13:21:52;14.90;45.30
19654;DHT22;9975;48.046;7.804;2023-04-24T13:24:17;14.80;45.10
19654;DHT22;9975;48.046;7.804;2023-04-24T13:26:43;15.10;45.60
19654;DHT22;9975;48.046;7.804;2023-04-24T13:29:09;15.30;44.70
19654;DHT22;9975;48.046;7.804;2023-04-24T13:31:35;15.30;45.50
19654;DHT22;9975;48.046;7.804;2023-04-24T13:34:02;15.20;46.10
19654;DHT22;9975;48.046;7.804;2023-04-24T13:36:28;15.10;45.70
19654;DHT22;9975;48.046;7.804;2023-04-24T13:38:54;15.00;46.00
19654;DHT22;9975;48.046;7.804;2023-04-24T13:41:19;14.70;47.00
19654;DHT22;9975;48.046;7.804;2023-04-24T13:43:45;14.70;46.80
19654;DHT22;9975;48.046;7.804;2023-04-24T13:46:11;14.80;47.30
19654;DHT22;9975;48.046;7.804;2023-04-24T13:48:36;14.90;47.60
19654;DHT22;9975;48.046;7.804;2023-04-24T13:51:02;14.80;47.70
19654;DHT22;9975;48.046;7.804;2023-04-24T13:53:27;14.70;48.30
19654;DHT22;9975;48.046;7.804;2023-04-24T13:55:53;15.00;48.70
19654;DHT22;9975;48.046;7.804;2023-04-24T13:58:19;15.00;49.10
19654;DHT22;9975;48.046;7.804;2023-04-24T14:00:44;15.10;50.10
19654;DHT22;9975;48.046;7.804;2023-04-24T14:03:10;14.90;49.50
19654;DHT22;9975;48.046;7.804;2023-04-24T14:05:36;14.70;47.90
19654;DHT22;9975;48.046;7.804;2023-04-24T14:08:01;14.60;50.00
19654;DHT22;9975;48.046;7.804;2023-04-24T14:10:27;14.60;51.90
19654;DHT22;9975;48.046;7.804;2023-04-24T14:12:53;14.70;51.60
19654;DHT22;9975;48.046;7.804;2023-04-24T14:15:19;14.60;52.10
19654;DHT22;9975;48.046;7.804;2023-04-24T14:17:45;14.60;52.80
19654;DHT22;9975;48.046;7.804;2023-04-24T14:20:12;14.60;53.10
19654;DHT22;9975;48.046;7.804;2023-04-24T14:22:37;14.50;54.00
19654;DHT22;9975;48.046;7.804;2023-04-24T14:25:04;14.50;54.00
19654;DHT22;9975;48.046;7.804;2023-04-24T14:27:31;14.60;53.80
19654;DHT22;9975;48.046;7.804;2023-04-24T14:29:57;14.60;52.30
19654;DHT22;9975;48.046;7.804;2023-04-24T14:32:23;14.20;54.00
19654;DHT22;9975;48.046;7.804;2023-04-24T14:34:48;14.20;54.40
19654;DHT22;9975;48.046;7.804;2023-04-24T14:37:14;14.20;56.40
19654;DHT22;9975;48.046;7.804;2023-04-24T14:39:40;14.50;55.30
19654;DHT22;9975;48.046;7.804;2023-04-24T14:42:06;14.30;55.10
19654;DHT22;9975;48.046;7.804;2023-04-24T14:44:31;14.10;54.80
19654;DHT22;9975;48.046;7.804;2023-04-24T14:46:58;14.00;54.90
19654;DHT22;9975;48.046;7.804;2023-04-24T14:49:24;14.10;55.30
19654;DHT22;9975;48.046;7.804;2023-04-24T14:51:49;14.10;55.60
19654;DHT22;9975;48.046;7.804;2023-04-24T14:54:15;14.10;55.40
19654;DHT22;9975;48.046;7.804;2023-04-24T14:56:41;14.20;55.30
19654;DHT22;9975;48.046;7.804;2023-04-24T14:59:08;14.40;55.00
19654;DHT22;9975;48.046;7.804;2023-04-24T15:01:33;14.60;53.90
19654;DHT22;9975;48.046;7.804;2023-04-24T15:03:59;14.50;52.90
19654;DHT22;9975;48.046;7.804;2023-04-24T15:06:25;14.60;52.50
19654;DHT22;9975;48.046;7.804;2023-04-24T15:08:51;14.60;52.80
19654;DHT22;9975;48.046;7.804;2023-04-24T15:11:17;14.50;51.60
19654;DHT22;9975;48.046;7.804;2023-04-24T15:13:42;14.30;51.60
19654;DHT22;9975;48.046;7.804;2023-04-24T15:16:10;14.10;52.10
19654;DHT22;9975;48.046;7.804;2023-04-24T15:18:36;14.20;52.90
19654;DHT22;9975;48.046;7.804;2023-04-24T15:21:01;14.10;53.90
19654;DHT22;9975;48.046;7.804;2023-04-24T15:23:27;14.20;53.60
19654;DHT22;9975;48.046;7.804;2023-04-24T15:25:53;14.40;54.50
19654;DHT22;9975;48.046;7.804;2023-04-24T15:28:19;14.70;54.50
19654;DHT22;9975;48.046;7.804;2023-04-24T15:30:44;14.90;54.80
19654;DHT22;9975;48.046;7.804;2023-04-24T15:33:10;14.80;54.70
19654;DHT22;9975;48.046;7.804;2023-04-24T15:35:36;14.60;55.80
19654;DHT22;9975;48.046;7.804;2023-04-24T15:38:01;14.50;56.00
19654;DHT22;9975;48.046;7.804;2023-04-24T15:40:27;14.40;56.60
19654;DHT22;9975;48.046;7.804;2023-04-24T15:42:53;14.40;55.00
19654;DHT22;9975;48.046;7.804;2023-04-24T15:45:19;14.30;54.30
19654;DHT22;9975;48.046;7.804;2023-04-24T15:47:45;14.20;54.20
19654;DHT22;9975;48.046;7.804;2023-04-24T15:50:14;14.30;54.50
19654;DHT22;9975;48.046;7.804;2023-04-24T15:52:44;14.20;52.40
19654;DHT22;9975;48.046;7.804;2023-04-24T15:55:10;14.20;52.10
19654;DHT22;9975;48.046;7.804;2023-04-24T15:57:36;14.20;52.00
19654;DHT22;9975;48.046;7.804;2023-04-24T16:00:03;14.20;51.90
19654;DHT22;9975;48.046;7.804;2023-04-24T16:02:31;14.20;51.50
19654;DHT22;9975;48.046;7.804;2023-04-24T16:04:57;13.90;51.40
19654;DHT22;9975;48.046;7.804;2023-04-24T16:07:23;13.80;51.90
19654;DHT22;9975;48.046;7.804;2023-04-24T16:09:48;13.70;52.10
19654;DHT22;9975;48.046;7.804;2023-04-24T16:12:14;13.70;52.40
19654;DHT22;9975;48.046;7.804;2023-04-24T16:14:40;13.70;52.60
19654;DHT22;9975;48.046;7.804;2023-04-24T16:17:05;13.60;53.10
19654;DHT22;9975;48.046;7.804;2023-04-24T16:19:31;13.60;53.50
19654;DHT22;9975;48.046;7.804;2023-04-24T16:21:59;13.50;54.10
19654;DHT22;9975;48.046;7.804;2023-04-24T16:24:25;13.40;54.00
19654;DHT22;9975;48.046;7.804;2023-04-24T16:26:51;13.40;54.40
19654;DHT22;9975;48.046;7.804;2023-04-24T16:29:18;13.40;54.50
19654;DHT22;9975;48.046;7.804;2023-04-24T16:31:43;13.40;54.60
19654;DHT22;9975;48.046;7.804;2023-04-24T16:34:09;13.30;54.60
19654;DHT22;9975;48.046;7.804;2023-04-24T16:36:35;13.30;54.90
19654;DHT22;9975;48.046;7.804;2023-04-24T16:39:02;13.40;55.40
19654;DHT22;9975;48.046;7.804;2023-04-24T16:41:30;13.40;55.20
19654;DHT22;9975;48.046;7.804;2023-04-24T16:43:55;13.50;54.70
19654;DHT22;9975;48.046;7.804;2023-04-24T16:46:21;13.40;54.20
19654;DHT22;9975;48.046;7.804;2023-04-24T16:48:47;13.40;55.10
19654;DHT22;9975;48.046;7.804;2023-04-24T16:51:12;13.30;55.30
19654;DHT22;9975;48.046;7.804;2023-04-24T16:53:38;13.30;55.70
19654;DHT22;9975;48.046;7.804;2023-04-24T16:56:04;13.10;54.90
19654;DHT22;9975;48.046;7.804;2023-04-24T16:58:30;13.10;55.00
19654;DHT22;9975;48.046;7.804;2023-04-24T17:00:56;13.20;55.20
19654;DHT22;9975;48.046;7.804;2023-04-24T17:03:22;13.20;54.90
19654;DHT22;9975;48.046;7.804;2023-04-24T17:05:48;13.20;55.10
19654;DHT22;9975;48.046;7.804;2023-04-24T17:08:13;13.20;55.30
19654;DHT22;9975;48.046;7.804;2023-04-24T17:10:39;13.20;55.30
19654;DHT22;9975;48.046;7.804;2023-04-24T17:13:06;13.20;54.90
19654;DHT22;9975;48.046;7.804;2023-04-24T17:15:32;13.30;55.60
19654;DHT22;9975;48.046;7.804;2023-04-24T17:17:58;13.30;56.00
19654;DHT22;9975;48.046;7.804;2023-04-24T17:20:24;13.30;56.60
19654;DHT22;9975;48.046;7.804;2023-04-24T17:22:50;13.20;57.10
19654;DHT22;9975;48.046;7.804;2023-04-24T17:25:16;13.20;57.30
19654;DHT22;9975;48.046;7.804;2023-04-24T17:27:42;13.20;57.60
19654;DHT22;9975;48.046;7.804;2023-04-24T17:30:09;13.10;57.80
19654;DHT22;9975;48.046;7.804;2023-04-24T17:32:34;13.10;58.40
19654;DHT22;9975;48.046;7.804;2023-04-24T17:35:00;13.00;58.30
19654;DHT22;9975;48.046;7.804;2023-04-24T17:37:26;13.00;57.40
19654;DHT22;9975;48.046;7.804;2023-04-24T17:39:52;12.80;56.80
19654;DHT22;9975;48.046;7.804;2023-04-24T17:42:17;12.80;56.40
19654;DHT22;9975;48.046;7.804;2023-04-24T17:44:43;12.80;56.20
19654;DHT22;9975;48.046;7.804;2023-04-24T17:47:09;12.80;55.80